createdAt,value
2022-09-28T00:01:41.574Z,79.19
2022-09-28T00:04:07.993Z,79.13
2022-09-28T00:06:34.427Z,79.40
2022-09-28T00:09:01.830Z,79.55
2022-09-28T00:11:29.068Z,79.63
2022-09-28T00:14:00.869Z,79.70
2022-09-28T00:16:33.216Z,79.87
2022-09-28T00:19:00.014Z,79.85
2022-09-28T00:21:32.038Z,79.98
2022-09-28T00:24:12.418Z,79.70
2022-09-28T00:26:44.716Z,79.62
2022-09-28T00:29:17.746Z,79.42
2022-09-28T00:31:44.642Z,79.46
2022-09-28T00:34:11.443Z,79.43
2022-09-28T00:36:38.003Z,79.37
2022-09-28T00:39:06.891Z,79.74
2022-09-28T00:41:33.862Z,79.40
2022-09-28T00:44:22.210Z,79.46
2022-09-28T00:46:51.080Z,79.71
2022-09-28T00:49:20.114Z,79.65
2022-09-28T00:51:47.389Z,79.83
2022-09-28T00:54:15.105Z,79.45
2022-09-28T00:56:43.759Z,80.09
2022-09-28T00:59:10.369Z,79.82
2022-09-28T01:01:37.057Z,80.03
2022-09-28T01:04:04.814Z,79.82
2022-09-28T01:06:33.687Z,80.14
2022-09-28T01:09:03.676Z,80.10
2022-09-28T01:11:31.594Z,80.32
2022-09-28T01:13:58.485Z,80.07
2022-09-28T01:16:52.025Z,80.00
2022-09-28T01:19:34.282Z,80.00
2022-09-28T01:22:24.308Z,80.07
2022-09-28T01:25:27.571Z,80.01
2022-09-28T01:28:05.346Z,80.50
2022-09-28T01:30:39.251Z,80.58
2022-09-28T01:33:09.131Z,80.83
2022-09-28T01:35:43.361Z,81.12
2022-09-28T01:38:14.158Z,81.30
2022-09-28T01:40:41.436Z,81.30
2022-09-28T01:43:18.175Z,81.66
2022-09-28T01:45:50.500Z,81.70
2022-09-28T01:48:21.109Z,81.95
2022-09-28T01:50:50.913Z,82.03
2022-09-28T01:53:22.799Z,81.98
2022-09-28T01:55:53.007Z,82.29
2022-09-28T01:58:32.422Z,82.35
2022-09-28T02:01:09.966Z,82.48
2022-09-28T02:03:42.209Z,82.37
2022-09-28T02:06:31.886Z,82.46
2022-09-28T02:09:03.712Z,82.51
2022-09-28T02:11:30.868Z,82.33
2022-09-28T02:14:05.896Z,82.35
2022-09-28T02:16:39.264Z,82.26
2022-09-28T02:19:07.510Z,81.93
2022-09-28T02:21:59.020Z,81.95
2022-09-28T02:24:29.684Z,82.43
2022-09-28T02:26:58.898Z,82.64
2022-09-28T02:29:25.294Z,83.04
2022-09-28T02:31:51.964Z,83.01
2022-09-28T02:34:18.502Z,83.32
2022-09-28T02:36:45.787Z,83.42
2022-09-28T02:39:14.271Z,83.49
2022-09-28T02:42:41.882Z,83.82
2022-09-28T02:45:16.090Z,83.97
2022-09-28T02:47:56.554Z,83.83
2022-09-28T02:50:50.819Z,83.78
2022-09-28T02:53:44.527Z,83.69
2022-09-28T02:56:28.931Z,83.32
2022-09-28T02:59:33.221Z,83.62
2022-09-28T03:02:02.020Z,83.60
2022-09-28T03:04:36.982Z,83.57
2022-09-28T03:07:12.940Z,84.18
2022-09-28T03:09:59.004Z,83.84
2022-09-28T03:12:26.569Z,83.96
2022-09-28T03:15:10.576Z,83.60
2022-09-28T03:17:37.437Z,83.86
2022-09-28T03:20:04.642Z,83.64
2022-09-28T03:22:31.022Z,83.85
2022-09-28T03:24:57.435Z,83.41
2022-09-28T03:27:23.803Z,83.38
2022-09-28T03:29:50.282Z,83.46
2022-09-28T03:32:16.695Z,82.69
2022-09-28T03:34:43.114Z,82.63
2022-09-28T03:37:09.515Z,81.87
2022-09-28T03:39:36.303Z,81.83
2022-09-28T03:42:02.688Z,80.98
2022-09-28T03:44:29.087Z,81.01
2022-09-28T03:46:55.478Z,80.76
2022-09-28T03:49:21.873Z,80.71
2022-09-28T03:51:48.256Z,80.55
2022-09-28T03:54:14.641Z,80.36
2022-09-28T03:56:41.306Z,80.24
2022-09-28T03:59:07.712Z,80.26
2022-09-28T04:01:34.158Z,79.99
2022-09-28T04:04:00.727Z,80.08
2022-09-28T04:06:27.150Z,79.80
2022-09-28T04:08:53.592Z,79.34
2022-09-28T04:11:20.008Z,79.20
2022-09-28T04:13:50.086Z,79.63
2022-09-28T04:16:17.861Z,79.46
2022-09-28T04:18:44.467Z,79.70
2022-09-28T04:21:13.325Z,79.51
2022-09-28T04:23:40.819Z,79.91
2022-09-28T04:26:16.681Z,80.74
2022-09-28T04:29:06.581Z,81.31
2022-09-28T04:31:41.587Z,81.53
2022-09-28T04:34:08.769Z,81.94
2022-09-28T04:36:35.209Z,82.10
2022-09-28T04:39:01.596Z,82.17
2022-09-28T04:41:28.052Z,81.93
2022-09-28T04:43:54.459Z,82.36
2022-09-28T04:46:21.211Z,82.80
2022-09-28T04:48:47.661Z,82.70
2022-09-28T04:51:15.030Z,82.78
2022-09-28T04:53:41.445Z,83.04
2022-09-28T04:56:11.081Z,83.25
2022-09-28T04:58:39.123Z,82.94
2022-09-28T05:01:11.505Z,82.95
2022-09-28T05:03:38.376Z,82.67
2022-09-28T05:06:06.823Z,82.81
2022-09-28T05:08:35.108Z,83.29
2022-09-28T05:11:06.347Z,82.91
2022-09-28T05:13:41.669Z,82.83
2022-09-28T05:16:09.119Z,82.80
2022-09-28T05:18:35.969Z,82.48
2022-09-28T05:21:02.383Z,82.27
2022-09-28T05:23:28.774Z,82.04
2022-09-28T05:25:55.393Z,82.32
2022-09-28T05:28:27.281Z,82.12
2022-09-28T05:30:58.460Z,82.31
2022-09-28T05:33:24.862Z,82.48
2022-09-28T05:35:55.121Z,82.32
2022-09-28T05:38:23.658Z,82.74
2022-09-28T05:40:50.432Z,82.71
2022-09-28T05:43:16.892Z,83.03
2022-09-28T05:45:43.336Z,83.82
2022-09-28T05:48:09.760Z,84.02
2022-09-28T05:50:36.419Z,84.39
2022-09-28T05:53:08.213Z,84.28
2022-09-28T05:55:35.522Z,84.63
2022-09-28T05:58:04.814Z,84.50
2022-09-28T06:00:32.428Z,84.83
2022-09-28T06:03:08.546Z,84.76
2022-09-28T06:05:36.342Z,84.98
2022-09-28T06:08:05.093Z,84.95
2022-09-28T06:10:32.236Z,85.37
2022-09-28T06:12:59.121Z,85.20
2022-09-28T06:15:27.929Z,85.64
2022-09-28T06:18:02.399Z,85.85
2022-09-28T06:20:30.312Z,86.24
2022-09-28T06:23:03.582Z,86.20
2022-09-28T06:25:30.237Z,86.57
2022-09-28T06:28:01.945Z,86.58
2022-09-28T06:30:29.857Z,86.57
2022-09-28T06:32:58.014Z,86.70
2022-09-28T06:35:26.138Z,86.59
2022-09-28T06:37:53.355Z,86.92
2022-09-28T06:40:20.886Z,87.01
2022-09-28T06:43:10.021Z,87.28
2022-09-28T06:45:37.669Z,87.41
2022-09-28T06:48:05.521Z,86.93
2022-09-28T06:50:34.345Z,87.00
2022-09-28T06:53:01.279Z,87.08
2022-09-28T06:55:28.283Z,87.09
2022-09-28T06:58:02.932Z,86.74
2022-09-28T07:00:33.791Z,87.42
2022-09-28T07:03:02.576Z,87.58
2022-09-28T07:05:29.766Z,87.42
2022-09-28T07:07:56.905Z,87.25
2022-09-28T07:10:24.592Z,87.29
2022-09-28T07:12:51.653Z,87.20
2022-09-28T07:15:18.802Z,87.15
2022-09-28T07:17:58.770Z,87.45
2022-09-28T07:20:27.206Z,87.49
2022-09-28T07:23:08.714Z,87.60
2022-09-28T07:25:45.318Z,87.93
2022-09-28T07:28:12.068Z,87.80
2022-09-28T07:30:38.717Z,87.84
2022-09-28T07:33:06.658Z,87.26
2022-09-28T07:35:34.334Z,87.56
2022-09-28T07:38:07.993Z,87.72
2022-09-28T07:40:54.157Z,87.92
2022-09-28T07:43:21.386Z,87.88
2022-09-28T07:45:49.229Z,87.93
2022-09-28T07:48:16.323Z,88.09
2022-09-28T07:50:43.731Z,87.96
2022-09-28T07:53:10.160Z,87.74
2022-09-28T07:55:36.540Z,87.53
2022-09-28T07:58:02.947Z,87.01
2022-09-28T08:00:34.230Z,86.76
2022-09-28T08:03:03.998Z,86.72
2022-09-28T08:05:31.217Z,86.66
2022-09-28T08:07:59.559Z,86.32
2022-09-28T08:10:26.579Z,86.60
2022-09-28T08:12:59.229Z,86.72
2022-09-28T08:15:29.516Z,86.39
2022-09-28T08:17:59.114Z,86.17
2022-09-28T08:20:49.426Z,85.93
2022-09-28T08:23:17.948Z,85.91
2022-09-28T08:25:49.034Z,85.90
2022-09-28T08:28:17.504Z,85.74
2022-09-28T08:30:45.105Z,85.55
2022-09-28T08:33:16.088Z,85.34
2022-09-28T08:35:42.496Z,85.39
2022-09-28T08:38:09.458Z,84.88
2022-09-28T08:41:00.486Z,85.03
2022-09-28T08:43:51.689Z,84.69
2022-09-28T08:46:23.902Z,84.17
2022-09-28T08:49:23.921Z,83.41
2022-09-28T08:52:04.897Z,83.27
2022-09-28T08:54:50.301Z,82.26
2022-09-28T08:57:25.178Z,81.98
2022-09-28T08:59:54.086Z,82.05
2022-09-28T09:02:27.587Z,82.57
2022-09-28T09:04:54.724Z,82.31
2022-09-28T09:07:30.807Z,82.59
2022-09-28T09:10:00.211Z,82.80
2022-09-28T09:12:44.032Z,83.23
2022-09-28T09:15:32.256Z,82.82
2022-09-28T09:18:07.760Z,82.05
2022-09-28T09:20:45.686Z,82.35
2022-09-28T09:23:29.477Z,82.08
2022-09-28T09:26:00.395Z,82.22
2022-09-28T09:28:38.833Z,81.78
2022-09-28T09:31:11.103Z,81.86
2022-09-28T09:34:11.515Z,82.36
2022-09-28T09:37:08.917Z,82.28
2022-09-28T09:39:46.025Z,82.63
2022-09-28T09:42:21.491Z,82.57
2022-09-28T09:45:05.016Z,82.43
2022-09-28T09:47:36.081Z,82.11
2022-09-28T09:50:48.458Z,82.12
2022-09-28T09:53:26.948Z,81.99
2022-09-28T09:55:57.313Z,81.59
2022-09-28T09:58:30.259Z,81.04
2022-09-28T10:01:04.636Z,80.66
2022-09-28T10:03:33.163Z,80.48
2022-09-28T10:06:09.773Z,80.32
2022-09-28T10:08:48.670Z,80.31
2022-09-28T10:11:26.375Z,80.71
2022-09-28T10:13:52.869Z,80.17
2022-09-28T10:16:19.347Z,79.84
2022-09-28T10:18:45.800Z,80.29
2022-09-28T10:21:17.721Z,80.05
2022-09-28T10:23:44.918Z,79.57
2022-09-28T10:26:25.522Z,79.12
2022-09-28T10:28:52.406Z,78.88
2022-09-28T10:31:41.961Z,78.14
2022-09-28T10:34:11.261Z,77.84
2022-09-28T10:36:55.995Z,78.42
2022-09-28T10:39:48.133Z,79.47
2022-09-28T10:42:20.334Z,79.71
2022-09-28T10:45:00.844Z,79.16
2022-09-28T10:47:31.209Z,78.99
2022-09-28T10:49:58.245Z,78.89
2022-09-28T10:52:41.883Z,78.83
2022-09-28T10:55:30.516Z,78.46
2022-09-28T10:57:56.983Z,78.63
2022-09-28T11:00:30.662Z,78.30
2022-09-28T11:02:57.150Z,77.67
2022-09-28T11:05:27.838Z,77.60
2022-09-28T11:07:55.855Z,77.83
2022-09-28T11:10:25.048Z,77.73
2022-09-28T11:12:51.992Z,77.96
2022-09-28T11:15:24.825Z,77.51
2022-09-28T11:17:51.422Z,77.21
2022-09-28T11:20:27.514Z,77.89
2022-09-28T11:22:59.602Z,78.16
2022-09-28T11:25:27.788Z,78.11
2022-09-28T11:27:54.069Z,78.16
2022-09-28T11:30:24.482Z,78.28
2022-09-28T11:32:53.140Z,78.26
2022-09-28T11:35:27.494Z,77.61
2022-09-28T11:38:11.216Z,77.08
2022-09-28T11:40:51.348Z,76.81
2022-09-28T11:43:26.936Z,77.38
2022-09-28T11:46:00.237Z,78.09
2022-09-28T11:48:39.668Z,77.20
2022-09-28T11:51:09.334Z,76.93
2022-09-28T11:53:42.113Z,76.99
2022-09-28T11:56:26.124Z,77.54
2022-09-28T11:58:55.806Z,76.95
2022-09-28T12:01:31.194Z,76.89
2022-09-28T12:04:02.793Z,76.71
2022-09-28T12:06:39.302Z,77.06
2022-09-28T12:09:22.445Z,76.02
2022-09-28T12:11:52.539Z,74.87
2022-09-28T12:14:23.466Z,74.84
2022-09-28T12:17:06.018Z,74.46
2022-09-28T12:19:47.113Z,74.17
2022-09-28T12:22:23.973Z,74.75
2022-09-28T12:24:52.813Z,75.00
2022-09-28T12:27:29.586Z,74.69
2022-09-28T12:30:06.733Z,75.35
2022-09-28T12:32:41.191Z,76.46
2022-09-28T12:35:16.710Z,77.40
2022-09-28T12:37:58.590Z,77.21
2022-09-28T12:40:33.144Z,77.19
2022-09-28T12:43:25.168Z,77.85
2022-09-28T12:46:19.683Z,78.36
2022-09-28T12:49:51.518Z,77.58
2022-09-28T12:51:59.570Z,76.75
2022-09-28T12:54:50.738Z,75.68
2022-09-28T12:57:36.594Z,75.67
2022-09-28T13:00:09.032Z,75.88
2022-09-28T13:03:19.036Z,75.98
2022-09-28T13:06:11.158Z,75.92
2022-09-28T13:08:53.262Z,76.00
2022-09-28T13:11:42.078Z,76.39
2022-09-28T13:14:39.433Z,76.61
2022-09-28T13:17:29.381Z,75.55
2022-09-28T13:19:59.811Z,76.01
2022-09-28T13:22:43.557Z,76.35
2022-09-28T13:25:14.565Z,75.59
2022-09-28T13:27:45.488Z,75.30
2022-09-28T13:30:13.898Z,75.17
2022-09-28T13:32:40.903Z,75.09
2022-09-28T13:35:11.985Z,75.14
2022-09-28T13:37:38.369Z,75.40
2022-09-28T13:40:06.299Z,75.75
2022-09-28T13:42:44.917Z,74.58
2022-09-28T13:45:26.731Z,73.89
2022-09-28T13:48:20.473Z,73.63
2022-09-28T13:51:06.746Z,73.50
2022-09-28T13:53:42.936Z,74.27
2022-09-28T13:56:24.469Z,74.63
2022-09-28T13:58:55.893Z,74.90
2022-09-28T14:01:27.202Z,75.53
2022-09-28T14:04:19.033Z,75.09
2022-09-28T14:07:11.351Z,74.63
2022-09-28T14:09:46.211Z,73.88
2022-09-28T14:12:30.118Z,73.85
2022-09-28T14:14:56.758Z,74.10
2022-09-28T14:17:27.065Z,73.85
2022-09-28T14:19:56.515Z,74.10
2022-09-28T14:22:55.168Z,74.69
2022-09-28T14:25:32.630Z,75.47
2022-09-28T14:28:01.935Z,75.26
2022-09-28T14:30:43.591Z,75.82
2022-09-28T14:33:39.170Z,76.01
2022-09-28T14:36:08.303Z,76.29
2022-09-28T14:39:08.150Z,76.77
2022-09-28T14:41:37.132Z,77.32
2022-09-28T14:44:09.515Z,77.71
2022-09-28T14:46:43.332Z,77.55
2022-09-28T14:49:23.268Z,77.33
2022-09-28T14:51:52.642Z,77.98
2022-09-28T14:54:27.334Z,77.92
2022-09-28T14:56:53.786Z,77.64
2022-09-28T14:59:25.782Z,77.66
2022-09-28T15:01:57.222Z,77.37
2022-09-28T15:04:27.971Z,77.49
2022-09-28T15:06:54.536Z,77.44
2022-09-28T15:09:31.352Z,77.92
2022-09-28T15:12:02.396Z,77.70
2022-09-28T15:14:33.247Z,77.50
2022-09-28T15:17:03.312Z,77.47
2022-09-28T15:19:48.028Z,77.21
2022-09-28T15:22:18.312Z,77.45
2022-09-28T15:24:46.189Z,77.31
2022-09-28T15:27:18.867Z,77.03
2022-09-28T15:30:14.675Z,76.73
2022-09-28T15:32:41.103Z,76.74
2022-09-28T15:35:20.471Z,77.22
2022-09-28T15:37:51.861Z,77.05
2022-09-28T15:40:29.810Z,76.95
2022-09-28T15:42:59.293Z,76.68
2022-09-28T15:45:36.601Z,76.17
2022-09-28T15:48:26.890Z,76.29
2022-09-28T15:51:11.604Z,76.16
2022-09-28T15:53:43.275Z,76.25
2022-09-28T15:56:11.636Z,77.00
2022-09-28T15:58:38.708Z,76.47
2022-09-28T16:01:27.056Z,76.49
2022-09-28T16:03:53.529Z,75.84
2022-09-28T16:06:19.914Z,76.34
2022-09-28T16:08:48.400Z,76.21
2022-09-28T16:11:19.693Z,76.84
2022-09-28T16:14:07.264Z,76.31
2022-09-28T16:16:41.253Z,75.85
2022-09-28T16:19:24.050Z,75.84
2022-09-28T16:21:52.508Z,75.47
2022-09-28T16:24:43.032Z,75.53
2022-09-28T16:27:33.173Z,75.90
2022-09-28T16:30:24.369Z,75.73
2022-09-28T16:32:59.485Z,75.57
2022-09-28T16:35:29.949Z,75.47
2022-09-28T16:38:01.746Z,75.69
2022-09-28T16:40:28.535Z,75.65
2022-09-28T16:42:58.485Z,76.17
2022-09-28T16:45:24.884Z,76.40
2022-09-28T16:47:54.489Z,76.20
2022-09-28T16:50:21.795Z,75.87
2022-09-28T16:53:19.054Z,75.69
2022-09-28T16:55:46.649Z,75.62
2022-09-28T16:58:13.109Z,76.29
2022-09-28T17:00:39.529Z,76.75
2022-09-28T17:03:18.242Z,77.28
2022-09-28T17:05:45.064Z,77.76
2022-09-28T17:08:17.187Z,77.93
2022-09-28T17:11:19.242Z,78.18
2022-09-28T17:13:38.907Z,78.03
2022-09-28T17:16:08.790Z,78.16
2022-09-28T17:18:39.149Z,78.48
2022-09-28T17:21:09.386Z,78.69
2022-09-28T17:23:35.777Z,78.66
2022-09-28T17:26:02.831Z,78.71
2022-09-28T17:28:34.476Z,78.41
2022-09-28T17:31:01.149Z,78.48
2022-09-28T17:33:28.224Z,78.04
2022-09-28T17:36:00.121Z,78.10
2022-09-28T17:38:26.919Z,78.25
2022-09-28T17:40:53.366Z,78.48
2022-09-28T17:43:22.099Z,78.41
2022-09-28T17:45:49.360Z,78.77
2022-09-28T17:48:18.269Z,78.79
2022-09-28T17:50:46.674Z,79.25
2022-09-28T17:53:14.184Z,79.25
2022-09-28T17:55:42.911Z,79.16
2022-09-28T17:58:20.590Z,79.62
2022-09-28T18:00:48.763Z,79.75
2022-09-28T18:03:17.561Z,79.84
2022-09-28T18:05:45.016Z,79.95
2022-09-28T18:08:13.742Z,79.95
2022-09-28T18:10:40.172Z,79.72
2022-09-28T18:13:06.590Z,80.13
2022-09-28T18:15:33.072Z,80.44
2022-09-28T18:17:59.619Z,81.00
2022-09-28T18:20:26.131Z,81.52
2022-09-28T18:22:52.575Z,81.70
2022-09-28T18:25:18.981Z,82.41
2022-09-28T18:27:45.416Z,82.44
2022-09-28T18:30:11.970Z,82.71
2022-09-28T18:32:38.493Z,82.99
2022-09-28T18:35:06.723Z,83.06
2022-09-28T18:37:37.895Z,83.18
2022-09-28T18:40:04.687Z,83.25
2022-09-28T18:42:32.143Z,83.45
2022-09-28T18:44:58.575Z,83.70
2022-09-28T18:47:25.501Z,84.06
2022-09-28T18:49:51.907Z,84.09
2022-09-28T18:52:18.323Z,84.04
2022-09-28T18:54:46.638Z,83.70
2022-09-28T18:57:13.086Z,83.33
2022-09-28T18:59:39.482Z,83.34
2022-09-28T19:02:06.047Z,83.37
2022-09-28T19:04:32.466Z,83.23
2022-09-28T19:06:58.898Z,83.42
2022-09-28T19:09:26.456Z,83.38
2022-09-28T19:11:52.871Z,83.21
2022-09-28T19:14:19.352Z,83.45
2022-09-28T19:16:45.841Z,83.29
2022-09-28T19:19:13.990Z,83.91
2022-09-28T19:21:43.125Z,83.84
2022-09-28T19:24:13.217Z,83.89
2022-09-28T19:26:39.678Z,84.29
2022-09-28T19:29:06.242Z,84.40
2022-09-28T19:31:32.761Z,84.03
2022-09-28T19:33:59.299Z,83.67
2022-09-28T19:36:28.353Z,83.34
2022-09-28T19:38:56.265Z,83.41
2022-09-28T19:41:46.443Z,83.96
2022-09-28T19:44:27.410Z,83.71
2022-09-28T19:46:56.086Z,83.85
2022-09-28T19:49:23.600Z,83.81
2022-09-28T19:52:11.439Z,83.92
2022-09-28T19:54:38.510Z,83.51
2022-09-28T19:57:07.678Z,83.37
2022-09-28T19:59:35.619Z,83.74
2022-09-28T20:02:03.109Z,83.61
2022-09-28T20:04:29.950Z,83.60
2022-09-28T20:06:56.385Z,83.95
2022-09-28T20:09:23.811Z,83.75
2022-09-28T20:11:51.787Z,83.96
2022-09-28T20:14:23.368Z,84.01
2022-09-28T20:16:52.227Z,84.08
2022-09-28T20:19:21.392Z,84.19
2022-09-28T20:21:48.317Z,84.27
2022-09-28T20:24:18.105Z,84.24
2022-09-28T20:26:45.834Z,84.84
2022-09-28T20:29:12.660Z,84.41
2022-09-28T20:31:39.194Z,84.54
2022-09-28T20:34:07.016Z,84.68
2022-09-28T20:36:33.832Z,84.57
2022-09-28T20:39:04.630Z,84.15
2022-09-28T20:41:36.419Z,84.06
2022-09-28T20:44:05.926Z,83.58
2022-09-28T20:46:33.528Z,83.61
2022-09-28T20:49:00.229Z,83.53
2022-09-28T20:51:26.824Z,83.49
2022-09-28T20:53:55.034Z,83.04
2022-09-28T20:56:26.895Z,83.19
2022-09-28T20:58:54.041Z,83.50
2022-09-28T21:01:25.514Z,83.06
2022-09-28T21:03:59.594Z,83.12
2022-09-28T21:06:29.893Z,82.72
2022-09-28T21:08:56.917Z,82.25
2022-09-28T21:11:24.680Z,82.29
2022-09-28T21:13:57.046Z,82.15
2022-09-28T21:16:23.854Z,82.02
2022-09-28T21:18:50.242Z,82.35
2022-09-28T21:21:18.900Z,82.08
2022-09-28T21:23:45.529Z,81.95
2022-09-28T21:26:18.845Z,82.24
2022-09-28T21:28:45.935Z,82.08
2022-09-28T21:31:12.903Z,81.97
2022-09-28T21:33:39.370Z,82.18
2022-09-28T21:36:06.918Z,82.55
2022-09-28T21:38:34.339Z,82.36
2022-09-28T21:41:00.856Z,82.78
2022-09-28T21:43:29.344Z,82.47
2022-09-28T21:45:56.364Z,82.45
2022-09-28T21:48:24.205Z,82.31
2022-09-28T21:50:54.637Z,82.48
2022-09-28T21:53:22.024Z,82.85
2022-09-28T21:55:53.110Z,82.72
2022-09-28T21:58:23.338Z,82.43
2022-09-28T22:00:58.985Z,82.23
2022-09-28T22:03:25.729Z,82.07
2022-09-28T22:05:52.381Z,82.11
2022-09-28T22:08:19.409Z,82.01
2022-09-28T22:10:46.021Z,82.49
2022-09-28T22:13:12.431Z,82.69
2022-09-28T22:15:39.154Z,82.87
2022-09-28T22:18:05.589Z,83.27
2022-09-28T22:20:31.997Z,82.97
2022-09-28T22:22:58.472Z,82.95
2022-09-28T22:25:24.865Z,83.10
2022-09-28T22:27:51.303Z,83.17
2022-09-28T22:30:17.727Z,82.96
2022-09-28T22:32:44.136Z,82.98
2022-09-28T22:35:10.529Z,83.06
2022-09-28T22:37:36.934Z,82.93
2022-09-28T22:40:03.623Z,82.89
2022-09-28T22:42:30.036Z,82.76
2022-09-28T22:44:56.439Z,82.39
2022-09-28T22:47:23.085Z,82.33
2022-09-28T22:49:49.695Z,82.83
2022-09-28T22:52:16.171Z,82.60
2022-09-28T22:54:42.588Z,82.70
2022-09-28T22:57:08.973Z,82.65
2022-09-28T22:59:35.410Z,82.63
2022-09-28T23:02:01.965Z,82.57
2022-09-28T23:04:28.855Z,82.56
2022-09-28T23:06:55.304Z,82.88
2022-09-28T23:09:21.758Z,82.86
2022-09-28T23:11:48.232Z,82.88
2022-09-28T23:14:14.686Z,83.06
2022-09-28T23:16:41.218Z,83.15
2022-09-28T23:19:07.643Z,83.18
2022-09-28T23:21:34.258Z,83.55
2022-09-28T23:24:01.572Z,83.71
2022-09-28T23:26:30.340Z,83.42
2022-09-28T23:28:57.504Z,83.55
2022-09-28T23:31:26.519Z,83.53
2022-09-28T23:33:57.329Z,83.56
2022-09-28T23:36:23.758Z,83.34
2022-09-28T23:38:50.348Z,83.57
2022-09-28T23:41:16.775Z,83.73
2022-09-28T23:43:43.178Z,83.75
2022-09-28T23:46:09.673Z,83.78
2022-09-28T23:48:36.123Z,83.74
2022-09-28T23:51:02.826Z,83.50
2022-09-28T23:53:29.726Z,83.49
2022-09-28T23:55:56.150Z,83.73
2022-09-28T23:58:22.635Z,83.86
